地図

経路データ

SID SEASON NUMBER BASIN SUBBASIN NAME ISO_TIME NATURE LAT LON WMO_WIND WMO_PRES WMO_AGENCY TRACK_TYPE DIST2LAND LANDFALL IFLAG USA_AGENCY USA_ATCF_ID USA_LAT USA_LON USA_RECORD USA_STATUS USA_WIND USA_PRES USA_SSHS USA_R34_NE USA_R34_SE USA_R34_SW USA_R34_NW USA_R50_NE USA_R50_SE USA_R50_SW USA_R50_NW USA_R64_NE USA_R64_SE USA_R64_SW USA_R64_NW USA_POCI USA_ROCI USA_RMW USA_EYE TOKYO_LAT TOKYO_LON TOKYO_GRADE TOKYO_WIND TOKYO_PRES TOKYO_R50_DIR TOKYO_R50_LONG TOKYO_R50_SHORT TOKYO_R30_DIR TOKYO_R30_LONG TOKYO_R30_SHORT TOKYO_LAND CMA_LAT CMA_LON CMA_CAT CMA_WIND CMA_PRES HKO_LAT HKO_LON HKO_CAT HKO_WIND HKO_PRES NEWDELHI_LAT NEWDELHI_LON NEWDELHI_GRADE NEWDELHI_WIND NEWDELHI_PRES NEWDELHI_CI NEWDELHI_DP NEWDELHI_POCI REUNION_LAT REUNION_LON REUNION_TYPE REUNION_WIND REUNION_PRES REUNION_TNUM REUNION_CI REUNION_RMW REUNION_R34_NE REUNION_R34_SE REUNION_R34_SW REUNION_R34_NW REUNION_R50_NE REUNION_R50_SE REUNION_R50_SW REUNION_R50_NW REUNION_R64_NE REUNION_R64_SE REUNION_R64_SW REUNION_R64_NW BOM_LAT BOM_LON BOM_TYPE BOM_WIND BOM_PRES BOM_TNUM BOM_CI BOM_RMW BOM_R34_NE BOM_R34_SE BOM_R34_SW BOM_R34_NW BOM_R50_NE BOM_R50_SE BOM_R50_SW BOM_R50_NW BOM_R64_NE BOM_R64_SE BOM_R64_SW BOM_R64_NW BOM_ROCI BOM_POCI BOM_EYE BOM_POS_METHOD BOM_PRES_METHOD NADI_LAT NADI_LON NADI_CAT NADI_WIND NADI_PRES WELLINGTON_LAT WELLINGTON_LON WELLINGTON_WIND WELLINGTON_PRES DS824_LAT DS824_LON DS824_STAGE DS824_WIND DS824_PRES TD9636_LAT TD9636_LON TD9636_STAGE TD9636_WIND TD9636_PRES TD9635_LAT TD9635_LON TD9635_WIND TD9635_PRES TD9635_ROCI NEUMANN_LAT NEUMANN_LON NEUMANN_CLASS NEUMANN_WIND NEUMANN_PRES MLC_LAT MLC_LON MLC_CLASS MLC_WIND MLC_PRES USA_GUST BOM_GUST BOM_GUST_PER REUNION_GUST REUNION_GUST_PER USA_SEAHGT USA_SEARAD_NE USA_SEARAD_SE USA_SEARAD_SW USA_SEARAD_NW STORM_SPEED STORM_DIR
1899275N20276 1899 37 NA CS NOT_NAMED 1899-10-02 06:00:00 TS 20.0000 -84.1000 35 hurdat_atl main 203 179 O_____________ hurdat_atl AL061899 20.0000 -84.1000 TS 35 0 8 309
1899275N20276 1899 37 NA CS NOT_NAMED 1899-10-02 09:00:00 TS 20.2427 -84.4198 main 179 145 P_____________ AL061899 20.2427 -84.4198 TS 35 0 8 312
1899275N20276 1899 37 NA CS NOT_NAMED 1899-10-02 12:00:00 TS 20.5000 -84.7000 35 hurdat_atl main 145 112 O_____________ hurdat_atl AL061899 20.5000 -84.7000 TS 35 0 7 319
1899275N20276 1899 37 NA CS NOT_NAMED 1899-10-02 15:00:00 TS 20.7849 -84.9152 main 112 84 P_____________ AL061899 20.7849 -84.9152 TS 37 0 7 328
1899275N20276 1899 37 NA CS NOT_NAMED 1899-10-02 18:00:00 TS 21.1000 -85.1000 40 hurdat_atl main 84 59 O_____________ hurdat_atl AL061899 21.1000 -85.1000 TS 40 0 7 331
1899275N20276 1899 37 NA CS NOT_NAMED 1899-10-02 21:00:00 TS 21.4275 -85.2927 main 63 46 P_____________ AL061899 21.4275 -85.2927 TS 40 0 8 332
1899275N20276 1899 37 NA CS NOT_NAMED 1899-10-03 00:00:00 TS 21.8000 -85.5000 40 hurdat_atl main 52 51 O_____________ hurdat_atl AL061899 21.8000 -85.5000 TS 40 0 9 332
1899275N20276 1899 37 NA GM NOT_NAMED 1899-10-03 03:00:00 TS 22.2275 -85.7426 main 79 79 P_____________ AL061899 22.2275 -85.7426 TS 40 0 10 333
1899275N20276 1899 37 NA GM NOT_NAMED 1899-10-03 06:00:00 TS 22.7000 -86.0000 40 hurdat_atl main 136 136 O_____________ hurdat_atl AL061899 22.7000 -86.0000 TS 40 0 11 334
1899275N20276 1899 37 NA GM NOT_NAMED 1899-10-03 09:00:00 TS 23.2075 -86.2649 main 197 197 P_____________ AL061899 23.2075 -86.2649 TS 42 0 11 335
1899275N20276 1899 37 NA GM NOT_NAMED 1899-10-03 12:00:00 TS 23.7000 -86.5000 45 hurdat_atl main 251 251 O_____________ hurdat_atl AL061899 23.7000 -86.5000 TS 45 0 10 338
1899275N20276 1899 37 NA GM NOT_NAMED 1899-10-03 15:00:00 TS 24.0999 -86.6654 main 292 292 P_____________ AL061899 24.0999 -86.6654 TS 47 0 8 341
1899275N20276 1899 37 NA GM NOT_NAMED 1899-10-03 18:00:00 TS 24.5000 -86.8000 50 hurdat_atl main 335 335 O_____________ hurdat_atl AL061899 24.5000 -86.8000 TS 50 0 9 343
1899275N20276 1899 37 NA GM NOT_NAMED 1899-10-03 21:00:00 TS 24.9850 -86.9649 main 391 391 P_____________ AL061899 24.9850 -86.9649 TS 50 0 10 345
1899275N20276 1899 37 NA GM NOT_NAMED 1899-10-04 00:00:00 TS 25.5000 -87.1000 50 hurdat_atl main 437 383 O_____________ hurdat_atl AL061899 25.5000 -87.1000 TS 50 0 11 349
1899275N20276 1899 37 NA GM NOT_NAMED 1899-10-04 03:00:00 TS 26.0150 -87.1875 main 383 335 P_____________ AL061899 26.0150 -87.1875 TS 50 0 10 355
1899275N20276 1899 37 NA GM NOT_NAMED 1899-10-04 06:00:00 TS 26.5000 -87.2000 50 hurdat_atl main 335 299 O_____________ hurdat_atl AL061899 26.5000 -87.2000 TS 50 0 9 0
1899275N20276 1899 37 NA GM NOT_NAMED 1899-10-04 09:00:00 TS 26.9372 -87.1823 main 299 279 P_____________ AL061899 26.9372 -87.1823 TS 50 0 8 13
1899275N20276 1899 37 NA GM NOT_NAMED 1899-10-04 12:00:00 TS 27.3000 -87.0000 50 hurdat_atl main 279 261 O_____________ hurdat_atl AL061899 27.3000 -87.0000 TS 50 0 9 39
1899275N20276 1899 37 NA GM NOT_NAMED 1899-10-04 15:00:00 TS 27.6101 -86.5755 main 261 219 P_____________ AL061899 27.6101 -86.5755 TS 50 0 10 61
1899275N20276 1899 37 NA GM NOT_NAMED 1899-10-04 18:00:00 TS 27.8000 -86.0000 50 hurdat_atl main 219 212 O_____________ hurdat_atl AL061899 27.8000 -86.0000 TS 50 0 10 77
1899275N20276 1899 37 NA GM NOT_NAMED 1899-10-04 21:00:00 TS 27.8373 -85.4220 main 212 186 P_____________ AL061899 27.8373 -85.4220 TS 50 0 11 90
1899275N20276 1899 37 NA GM NOT_NAMED 1899-10-05 00:00:00 TS 27.8000 -84.8000 50 hurdat_atl main 186 128 O_____________ hurdat_atl AL061899 27.8000 -84.8000 TS 50 0 11 93
1899275N20276 1899 37 NA GM NOT_NAMED 1899-10-05 03:00:00 TS 27.7864 -84.1341 main 118 59 P_____________ AL061899 27.7864 -84.1341 TS 50 0 11 90
1899275N20276 1899 37 NA GM NOT_NAMED 1899-10-05 06:00:00 TS 27.8000 -83.5000 50 hurdat_atl main 59 9 O_____________ hurdat_atl AL061899 27.8000 -83.5000 TS 50 0 10 86
1899275N20276 1899 37 NA GM NOT_NAMED 1899-10-05 09:00:00 TS 27.8622 -82.9605 main 9 0 P_____________ AL061899 27.8622 -82.9605 TS 50 0 9 81
1899275N20276 1899 37 NA NA NOT_NAMED 1899-10-05 10:00:00 TS 27.9000 -82.8000 50 hurdat_atl main 0 0 O_____________ hurdat_atl AL061899 27.9000 -82.8000 L TS 50 0 9 71
1899275N20276 1899 37 NA GM NOT_NAMED 1899-10-05 12:00:00 TS 28.0000 -82.5000 40 hurdat_atl main 0 0 O_____________ hurdat_atl AL061899 28.0000 -82.5000 TS 40 0 12 53
1899275N20276 1899 37 NA NA NOT_NAMED 1899-10-05 15:00:00 TS 28.5144 -81.8650 main 0 0 P_____________ AL061899 28.5144 -81.8650 TS 40 0 18 43
1899275N20276 1899 37 NA NA NOT_NAMED 1899-10-05 18:00:00 TS 29.3000 -81.1000 40 hurdat_atl main 0 0 O_____________ hurdat_atl AL061899 29.3000 -81.1000 TS 40 0 21 40
1899275N20276 1899 37 NA NA NOT_NAMED 1899-10-05 21:00:00 TS 30.0850 -80.3425 main 101 101 P_____________ AL061899 30.0850 -80.3425 TS 40 0 21 39
1899275N20276 1899 37 NA NA NOT_NAMED 1899-10-06 00:00:00 TS 30.9000 -79.6000 40 hurdat_atl main 166 145 O_____________ hurdat_atl AL061899 30.9000 -79.6000 TS 40 0 19 37
1899275N20276 1899 37 NA NA NOT_NAMED 1899-10-06 03:00:00 TS 31.6185 -78.9835 main 145 121 P_____________ AL061899 31.6185 -78.9835 TS 40 0 19 36
1899275N20276 1899 37 NA NA NOT_NAMED 1899-10-06 06:00:00 ET 32.4000 -78.3000 40 hurdat_atl main 122 81 O_____________ hurdat_atl AL061899 32.4000 -78.3000 EX 40 -4 21 37
1899275N20276 1899 37 NA NA NOT_NAMED 1899-10-06 09:00:00 ET 33.3069 -77.4651 main 81 44 P_____________ AL061899 33.3069 -77.4651 EX 37 -4 26 40
1899275N20276 1899 37 NA NA NOT_NAMED 1899-10-06 12:00:00 ET 34.4000 -76.3000 35 hurdat_atl main 38 35 O_____________ hurdat_atl AL061899 34.4000 -76.3000 EX 35 -4 33 45
1899275N20276 1899 37 NA NA NOT_NAMED 1899-10-06 15:00:00 ET 35.6614 -74.6397 main 81 81 P_____________ AL061899 35.6614 -74.6397 EX 35 -4 40 47
1899275N20276 1899 37 NA NA NOT_NAMED 1899-10-06 18:00:00 ET 37.1000 -72.7000 35 hurdat_atl main 249 249 O_____________ hurdat_atl AL061899 37.1000 -72.7000 EX 35 -4 43 46
1899275N20276 1899 37 NA NA NOT_NAMED 1899-10-06 21:00:00 ET 38.6529 -70.7741 main 279 190 P_____________ AL061899 38.6529 -70.7741 EX 35 -4 44 44
1899275N20276 1899 37 NA NA NOT_NAMED 1899-10-07 00:00:00 ET 40.3000 -68.8000 35 hurdat_atl main 185 175 O_____________ hurdat_atl AL061899 40.3000 -68.8000 EX 35 -4 45 43
1899275N20276 1899 37 NA NA NOT_NAMED 1899-10-07 03:00:00 ET 41.9860 -66.7684 main 189 23 P_____________ AL061899 41.9860 -66.7684 EX 35 -4 44 42
1899275N20276 1899 37 NA NA NOT_NAMED 1899-10-07 06:00:00 ET 43.6000 -64.8000 35 hurdat_atl main 19 0 O_____________ hurdat_atl AL061899 43.6000 -64.8000 EX 35 -4 40 42
1899275N20276 1899 37 NA NA NOT_NAMED 1899-10-07 09:00:00 ET 44.9668 -63.0164 main 0 0 P_____________ AL061899 44.9668 -63.0164 EX 35 -4 37 43
1899275N20276 1899 37 NA NA NOT_NAMED 1899-10-07 12:00:00 ET 46.3000 -61.3000 35 hurdat_atl main 0 0 O_____________ hurdat_atl AL061899 46.3000 -61.3000 EX 35 -4 37 41
1899275N20276 1899 37 NA NA NOT_NAMED 1899-10-07 15:00:00 ET 47.7832 -59.4165 main 7 0 P_____________ AL061899 47.7832 -59.4165 EX 35 -4 39 40
1899275N20276 1899 37 NA NA NOT_NAMED 1899-10-07 18:00:00 ET 49.3000 -57.5000 35 hurdat_atl main 0 0 O_____________ hurdat_atl AL061899 49.3000 -57.5000 EX 35 -4 39 40
1899275N20276 1899 37 NA NA NOT_NAMED 1899-10-07 21:00:00 ET 50.7619 -55.5886 main 23 23 P_____________ AL061899 50.7619 -55.5886 EX 35 -4 38 40
1899275N20276 1899 37 NA NA NOT_NAMED 1899-10-08 00:00:00 ET 52.2000 -53.7000 35 hurdat_atl main 130 130 O_____________ hurdat_atl AL061899 52.2000 -53.7000 EX 35 -4 37 39
1899275N20276 1899 37 NA NA NOT_NAMED 1899-10-08 03:00:00 ET 53.6132 -51.8252 main 265 265 P_____________ AL061899 53.6132 -51.8252 EX 35 -4 36 39
1899275N20276 1899 37 NA NA NOT_NAMED 1899-10-08 06:00:00 ET 55.0000 -49.9000 35 hurdat_atl main 422 O_____________ hurdat_atl AL061899 55.0000 -49.9000 EX 35 -4 35 39

IBTrACS Databaseについて

本データベースは、米国NOAAが公開する1842年以降の世界の熱帯低気圧のベストトラックデータアーカイブInternational Best Track Archive for Climate Stewardship (IBTrACS)を、ウェブで閲覧しやすい形式に変換したものです。

最終更新日:2021-12-03